sensor_id;sensor_type;location;lat;lon;timestamp;P1;durP1;ratioP1;P2;durP2;ratioP2
2850;SDS011;1433;49.976;8.342;2022-09-12T00:01:27;16.73;;;15.03;;
2850;SDS011;1433;49.976;8.342;2022-09-12T00:03:53;16.23;;;14.53;;
2850;SDS011;1433;49.976;8.342;2022-09-12T00:06:24;19.13;;;16.20;;
2850;SDS011;1433;49.976;8.342;2022-09-12T00:08:59;15.83;;;14.33;;
2850;SDS011;1433;49.976;8.342;2022-09-12T00:11:28;17.20;;;14.50;;
2850;SDS011;1433;49.976;8.342;2022-09-12T00:13:55;16.57;;;14.83;;
2850;SDS011;1433;49.976;8.342;2022-09-12T00:16:24;17.43;;;15.40;;
2850;SDS011;1433;49.976;8.342;2022-09-12T00:18:52;16.77;;;14.27;;
2850;SDS011;1433;49.976;8.342;2022-09-12T00:21:19;18.60;;;14.50;;
2850;SDS011;1433;49.976;8.342;2022-09-12T00:23:47;22.80;;;15.30;;
2850;SDS011;1433;49.976;8.342;2022-09-12T00:26:14;21.23;;;14.90;;
2850;SDS011;1433;49.976;8.342;2022-09-12T00:28:42;18.93;;;16.00;;
2850;SDS011;1433;49.976;8.342;2022-09-12T00:31:10;17.97;;;15.77;;
2850;SDS011;1433;49.976;8.342;2022-09-12T00:33:38;18.10;;;15.80;;
2850;SDS011;1433;49.976;8.342;2022-09-12T00:36:06;16.23;;;14.60;;
2850;SDS011;1433;49.976;8.342;2022-09-12T00:38:35;15.07;;;13.30;;
2850;SDS011;1433;49.976;8.342;2022-09-12T00:41:04;20.17;;;15.57;;
2850;SDS011;1433;49.976;8.342;2022-09-12T00:43:37;21.83;;;17.70;;
2850;SDS011;1433;49.976;8.342;2022-09-12T00:46:15;17.90;;;16.00;;
2850;SDS011;1433;49.976;8.342;2022-09-12T00:48:43;18.13;;;16.20;;
2850;SDS011;1433;49.976;8.342;2022-09-12T00:51:11;18.40;;;14.50;;
2850;SDS011;1433;49.976;8.342;2022-09-12T00:53:39;19.20;;;17.20;;
2850;SDS011;1433;49.976;8.342;2022-09-12T00:56:07;19.50;;;17.40;;
2850;SDS011;1433;49.976;8.342;2022-09-12T00:58:36;24.03;;;19.87;;
2850;SDS011;1433;49.976;8.342;2022-09-12T01:01:05;20.03;;;15.90;;
2850;SDS011;1433;49.976;8.342;2022-09-12T01:03:31;22.57;;;17.93;;
2850;SDS011;1433;49.976;8.342;2022-09-12T01:06:00;18.47;;;16.50;;
2850;SDS011;1433;49.976;8.342;2022-09-12T01:08:34;19.17;;;15.53;;
2850;SDS011;1433;49.976;8.342;2022-09-12T01:11:05;19.40;;;16.70;;
2850;SDS011;1433;49.976;8.342;2022-09-12T01:13:34;16.83;;;15.23;;
2850;SDS011;1433;49.976;8.342;2022-09-12T01:16:05;19.23;;;16.70;;
2850;SDS011;1433;49.976;8.342;2022-09-12T01:24:18;18.67;;;16.77;;
2850;SDS011;1433;49.976;8.342;2022-09-12T01:32:48;20.00;;;15.90;;
2850;SDS011;1433;49.976;8.342;2022-09-12T01:40:48;19.50;;;16.57;;
2850;SDS011;1433;49.976;8.342;2022-09-12T01:43:21;19.27;;;17.37;;
2850;SDS011;1433;49.976;8.342;2022-09-12T01:45:58;22.30;;;18.90;;
2850;SDS011;1433;49.976;8.342;2022-09-12T01:48:28;21.20;;;16.93;;
2850;SDS011;1433;49.976;8.342;2022-09-12T01:53:40;24.23;;;17.77;;
2850;SDS011;1433;49.976;8.342;2022-09-12T01:56:13;23.50;;;19.33;;
2850;SDS011;1433;49.976;8.342;2022-09-12T01:58:53;21.70;;;19.40;;
2850;SDS011;1433;49.976;8.342;2022-09-12T02:01:25;21.87;;;19.33;;
2850;SDS011;1433;49.976;8.342;2022-09-12T02:03:57;20.03;;;17.77;;
2850;SDS011;1433;49.976;8.342;2022-09-12T02:06:25;21.40;;;19.10;;
2850;SDS011;1433;49.976;8.342;2022-09-12T02:08:56;20.77;;;18.57;;
2850;SDS011;1433;49.976;8.342;2022-09-12T02:11:30;21.50;;;19.27;;
2850;SDS011;1433;49.976;8.342;2022-09-12T02:14:06;28.87;;;19.40;;
2850;SDS011;1433;49.976;8.342;2022-09-12T02:16:43;22.90;;;19.93;;
2850;SDS011;1433;49.976;8.342;2022-09-12T02:19:09;23.60;;;21.10;;
2850;SDS011;1433;49.976;8.342;2022-09-12T02:21:38;22.17;;;19.87;;
2850;SDS011;1433;49.976;8.342;2022-09-12T02:24:08;21.60;;;19.30;;
2850;SDS011;1433;49.976;8.342;2022-09-12T02:26:40;25.93;;;19.40;;
2850;SDS011;1433;49.976;8.342;2022-09-12T02:29:09;21.90;;;18.80;;
2850;SDS011;1433;49.976;8.342;2022-09-12T02:31:53;24.07;;;20.17;;
2850;SDS011;1433;49.976;8.342;2022-09-12T02:39:53;24.47;;;19.57;;
2850;SDS011;1433;49.976;8.342;2022-09-12T02:42:20;23.87;;;19.57;;
2850;SDS011;1433;49.976;8.342;2022-09-12T02:44:47;23.23;;;19.43;;
2850;SDS011;1433;49.976;8.342;2022-09-12T02:47:18;23.13;;;20.53;;
2850;SDS011;1433;49.976;8.342;2022-09-12T02:50:00;23.50;;;21.00;;
2850;SDS011;1433;49.976;8.342;2022-09-12T02:52:29;40.83;;;21.60;;
2850;SDS011;1433;49.976;8.342;2022-09-12T02:54:57;23.07;;;19.87;;
2850;SDS011;1433;49.976;8.342;2022-09-12T02:57:23;31.00;;;21.80;;
2850;SDS011;1433;49.976;8.342;2022-09-12T02:59:51;23.50;;;21.10;;
2850;SDS011;1433;49.976;8.342;2022-09-12T03:07:33;24.50;;;21.93;;
2850;SDS011;1433;49.976;8.342;2022-09-12T03:13:21;23.70;;;20.67;;
2850;SDS011;1433;49.976;8.342;2022-09-12T03:18:33;21.63;;;19.43;;
2850;SDS011;1433;49.976;8.342;2022-09-12T03:26:44;23.70;;;20.80;;
2850;SDS011;1433;49.976;8.342;2022-09-12T03:29:22;23.30;;;18.57;;
2850;SDS011;1433;49.976;8.342;2022-09-12T03:31:51;21.10;;;18.60;;
2850;SDS011;1433;49.976;8.342;2022-09-12T03:34:19;23.27;;;19.00;;
2850;SDS011;1433;49.976;8.342;2022-09-12T03:36:46;22.87;;;20.03;;
2850;SDS011;1433;49.976;8.342;2022-09-12T03:39:13;23.53;;;21.03;;
2850;SDS011;1433;49.976;8.342;2022-09-12T03:41:40;27.93;;;21.50;;
2850;SDS011;1433;49.976;8.342;2022-09-12T03:44:06;35.43;;;23.20;;
2850;SDS011;1433;49.976;8.342;2022-09-12T03:46:32;27.07;;;22.43;;
2850;SDS011;1433;49.976;8.342;2022-09-12T03:48:58;27.13;;;22.27;;
2850;SDS011;1433;49.976;8.342;2022-09-12T03:51:24;26.60;;;21.23;;
2850;SDS011;1433;49.976;8.342;2022-09-12T03:53:51;25.17;;;22.27;;
2850;SDS011;1433;49.976;8.342;2022-09-12T03:56:17;22.87;;;20.47;;
2850;SDS011;1433;49.976;8.342;2022-09-12T03:58:44;29.43;;;22.20;;
2850;SDS011;1433;49.976;8.342;2022-09-12T04:01:14;26.10;;;21.63;;
2850;SDS011;1433;49.976;8.342;2022-09-12T04:03:42;27.30;;;22.20;;
2850;SDS011;1433;49.976;8.342;2022-09-12T04:06:10;28.00;;;21.43;;
2850;SDS011;1433;49.976;8.342;2022-09-12T04:08:38;26.77;;;21.60;;
2850;SDS011;1433;49.976;8.342;2022-09-12T04:11:07;24.17;;;21.10;;
2850;SDS011;1433;49.976;8.342;2022-09-12T04:13:35;24.20;;;19.83;;
2850;SDS011;1433;49.976;8.342;2022-09-12T04:16:02;26.90;;;22.33;;
2850;SDS011;1433;49.976;8.342;2022-09-12T04:18:29;25.97;;;21.57;;
2850;SDS011;1433;49.976;8.342;2022-09-12T04:20:56;25.77;;;20.90;;
2850;SDS011;1433;49.976;8.342;2022-09-12T04:23:23;28.17;;;21.33;;
2850;SDS011;1433;49.976;8.342;2022-09-12T04:25:53;30.30;;;24.90;;
2850;SDS011;1433;49.976;8.342;2022-09-12T04:28:20;29.70;;;23.23;;
2850;SDS011;1433;49.976;8.342;2022-09-12T04:30:47;28.97;;;20.93;;
2850;SDS011;1433;49.976;8.342;2022-09-12T04:33:13;27.03;;;21.60;;
2850;SDS011;1433;49.976;8.342;2022-09-12T04:35:39;25.63;;;22.67;;
2850;SDS011;1433;49.976;8.342;2022-09-12T04:38:06;23.90;;;21.33;;
2850;SDS011;1433;49.976;8.342;2022-09-12T04:40:32;26.20;;;20.80;;
2850;SDS011;1433;49.976;8.342;2022-09-12T04:42:59;26.00;;;22.97;;
2850;SDS011;1433;49.976;8.342;2022-09-12T04:45:25;32.40;;;24.80;;
2850;SDS011;1433;49.976;8.342;2022-09-12T04:47:51;33.83;;;25.40;;
2850;SDS011;1433;49.976;8.342;2022-09-12T04:50:18;26.43;;;23.53;;
2850;SDS011;1433;49.976;8.342;2022-09-12T04:52:52;26.80;;;22.13;;
2850;SDS011;1433;49.976;8.342;2022-09-12T04:55:16;25.07;;;21.80;;
2850;SDS011;1433;49.976;8.342;2022-09-12T04:57:42;27.30;;;21.73;;
2850;SDS011;1433;49.976;8.342;2022-09-12T05:00:08;27.40;;;22.80;;
2850;SDS011;1433;49.976;8.342;2022-09-12T05:02:40;28.37;;;21.83;;
2850;SDS011;1433;49.976;8.342;2022-09-12T05:05:06;24.77;;;19.33;;
2850;SDS011;1433;49.976;8.342;2022-09-12T05:07:33;24.20;;;20.63;;
2850;SDS011;1433;49.976;8.342;2022-09-12T05:10:00;25.67;;;22.03;;
2850;SDS011;1433;49.976;8.342;2022-09-12T05:12:29;27.90;;;22.90;;
2850;SDS011;1433;49.976;8.342;2022-09-12T05:14:56;42.27;;;38.17;;
2850;SDS011;1433;49.976;8.342;2022-09-12T05:17:22;29.20;;;26.20;;
2850;SDS011;1433;49.976;8.342;2022-09-12T05:19:48;26.20;;;23.40;;
2850;SDS011;1433;49.976;8.342;2022-09-12T05:22:15;31.67;;;23.30;;
2850;SDS011;1433;49.976;8.342;2022-09-12T05:24:41;25.30;;;22.10;;
2850;SDS011;1433;49.976;8.342;2022-09-12T05:27:09;29.20;;;23.30;;
2850;SDS011;1433;49.976;8.342;2022-09-12T05:29:35;29.32;;;22.67;;
2850;SDS011;1433;49.976;8.342;2022-09-12T05:32:01;33.30;;;24.47;;
2850;SDS011;1433;49.976;8.342;2022-09-12T05:34:28;27.97;;;21.37;;
2850;SDS011;1433;49.976;8.342;2022-09-12T05:36:54;27.97;;;23.40;;
2850;SDS011;1433;49.976;8.342;2022-09-12T05:39:20;26.40;;;23.03;;
2850;SDS011;1433;49.976;8.342;2022-09-12T05:41:46;29.53;;;22.53;;
2850;SDS011;1433;49.976;8.342;2022-09-12T05:44:13;26.10;;;23.20;;
2850;SDS011;1433;49.976;8.342;2022-09-12T05:46:40;23.93;;;21.53;;
2850;SDS011;1433;49.976;8.342;2022-09-12T05:49:08;23.17;;;20.60;;
2850;SDS011;1433;49.976;8.342;2022-09-12T05:51:37;24.00;;;21.10;;
2850;SDS011;1433;49.976;8.342;2022-09-12T05:54:07;22.97;;;20.13;;
2850;SDS011;1433;49.976;8.342;2022-09-12T05:56:39;23.50;;;19.80;;
2850;SDS011;1433;49.976;8.342;2022-09-12T05:59:09;22.50;;;20.10;;
2850;SDS011;1433;49.976;8.342;2022-09-12T06:01:39;21.60;;;18.73;;
2850;SDS011;1433;49.976;8.342;2022-09-12T06:04:06;20.97;;;18.73;;
2850;SDS011;1433;49.976;8.342;2022-09-12T06:06:34;21.53;;;19.17;;
2850;SDS011;1433;49.976;8.342;2022-09-12T06:09:02;20.97;;;18.70;;
2850;SDS011;1433;49.976;8.342;2022-09-12T06:11:30;21.63;;;19.13;;
2850;SDS011;1433;49.976;8.342;2022-09-12T06:13:59;20.37;;;18.03;;
2850;SDS011;1433;49.976;8.342;2022-09-12T06:16:29;20.30;;;18.10;;
2850;SDS011;1433;49.976;8.342;2022-09-12T06:18:57;20.17;;;17.97;;
2850;SDS011;1433;49.976;8.342;2022-09-12T06:21:27;21.70;;;18.87;;
2850;SDS011;1433;49.976;8.342;2022-09-12T06:23:56;19.77;;;17.63;;
2850;SDS011;1433;49.976;8.342;2022-09-12T06:26:26;18.70;;;16.50;;
2850;SDS011;1433;49.976;8.342;2022-09-12T06:28:54;21.03;;;18.40;;
2850;SDS011;1433;49.976;8.342;2022-09-12T06:31:22;18.63;;;16.40;;
2850;SDS011;1433;49.976;8.342;2022-09-12T06:33:50;18.33;;;16.47;;
2850;SDS011;1433;49.976;8.342;2022-09-12T06:36:19;19.17;;;17.37;;
2850;SDS011;1433;49.976;8.342;2022-09-12T06:38:47;19.07;;;17.10;;
2850;SDS011;1433;49.976;8.342;2022-09-12T06:41:20;19.67;;;16.80;;
2850;SDS011;1433;49.976;8.342;2022-09-12T06:43:47;18.70;;;16.73;;
2850;SDS011;1433;49.976;8.342;2022-09-12T06:46:13;17.27;;;15.43;;
2850;SDS011;1433;49.976;8.342;2022-09-12T06:48:39;18.37;;;16.47;;
2850;SDS011;1433;49.976;8.342;2022-09-12T06:51:06;18.90;;;15.20;;
2850;SDS011;1433;49.976;8.342;2022-09-12T06:53:34;17.63;;;15.80;;
2850;SDS011;1433;49.976;8.342;2022-09-12T06:56:08;17.93;;;16.00;;
2850;SDS011;1433;49.976;8.342;2022-09-12T06:58:39;19.43;;;17.23;;
2850;SDS011;1433;49.976;8.342;2022-09-12T07:01:10;16.10;;;14.57;;
2850;SDS011;1433;49.976;8.342;2022-09-12T07:03:39;17.73;;;14.40;;
2850;SDS011;1433;49.976;8.342;2022-09-12T07:06:12;21.37;;;16.83;;
2850;SDS011;1433;49.976;8.342;2022-09-12T07:08:40;17.30;;;15.60;;
2850;SDS011;1433;49.976;8.342;2022-09-12T07:11:08;16.47;;;14.97;;
2850;SDS011;1433;49.976;8.342;2022-09-12T07:13:36;21.10;;;15.87;;
2850;SDS011;1433;49.976;8.342;2022-09-12T07:16:05;17.13;;;15.40;;
2850;SDS011;1433;49.976;8.342;2022-09-12T07:18:32;14.93;;;13.63;;
2850;SDS011;1433;49.976;8.342;2022-09-12T07:21:04;17.63;;;15.93;;
2850;SDS011;1433;49.976;8.342;2022-09-12T07:23:28;18.77;;;16.93;;
2850;SDS011;1433;49.976;8.342;2022-09-12T07:25:55;17.03;;;14.20;;
2850;SDS011;1433;49.976;8.342;2022-09-12T07:28:22;16.83;;;14.50;;
2850;SDS011;1433;49.976;8.342;2022-09-12T07:30:49;16.97;;;15.40;;
2850;SDS011;1433;49.976;8.342;2022-09-12T07:33:18;15.50;;;13.83;;
2850;SDS011;1433;49.976;8.342;2022-09-12T07:35:49;13.70;;;12.30;;
2850;SDS011;1433;49.976;8.342;2022-09-12T07:38:15;16.73;;;14.87;;
2850;SDS011;1433;49.976;8.342;2022-09-12T07:40:41;14.67;;;13.37;;
2850;SDS011;1433;49.976;8.342;2022-09-12T07:43:08;15.10;;;13.70;;
2850;SDS011;1433;49.976;8.342;2022-09-12T07:45:34;16.23;;;14.33;;
2850;SDS011;1433;49.976;8.342;2022-09-12T07:48:00;15.50;;;14.07;;
2850;SDS011;1433;49.976;8.342;2022-09-12T07:50:26;14.10;;;12.90;;
2850;SDS011;1433;49.976;8.342;2022-09-12T07:52:53;17.87;;;16.17;;
2850;SDS011;1433;49.976;8.342;2022-09-12T07:55:20;16.73;;;15.10;;
2850;SDS011;1433;49.976;8.342;2022-09-12T07:57:49;15.67;;;14.07;;
2850;SDS011;1433;49.976;8.342;2022-09-12T08:00:16;15.07;;;13.53;;
2850;SDS011;1433;49.976;8.342;2022-09-12T08:02:42;16.27;;;14.63;;
2850;SDS011;1433;49.976;8.342;2022-09-12T08:05:09;15.10;;;13.60;;
2850;SDS011;1433;49.976;8.342;2022-09-12T08:07:35;16.10;;;14.47;;
2850;SDS011;1433;49.976;8.342;2022-09-12T08:10:01;15.67;;;14.07;;
2850;SDS011;1433;49.976;8.342;2022-09-12T08:12:28;27.47;;;14.47;;
2850;SDS011;1433;49.976;8.342;2022-09-12T08:14:56;14.03;;;12.73;;
2850;SDS011;1433;49.976;8.342;2022-09-12T08:17:22;15.37;;;13.77;;
2850;SDS011;1433;49.976;8.342;2022-09-12T08:19:48;16.80;;;14.40;;
2850;SDS011;1433;49.976;8.342;2022-09-12T08:22:15;18.13;;;15.00;;
2850;SDS011;1433;49.976;8.342;2022-09-12T08:24:41;14.83;;;13.33;;
2850;SDS011;1433;49.976;8.342;2022-09-12T08:27:07;15.67;;;12.83;;
2850;SDS011;1433;49.976;8.342;2022-09-12T08:29:33;14.43;;;13.07;;
2850;SDS011;1433;49.976;8.342;2022-09-12T08:31:59;14.97;;;13.47;;
2850;SDS011;1433;49.976;8.342;2022-09-12T08:34:25;13.37;;;12.13;;
2850;SDS011;1433;49.976;8.342;2022-09-12T08:36:52;14.20;;;12.80;;
2850;SDS011;1433;49.976;8.342;2022-09-12T08:39:19;14.17;;;12.60;;
2850;SDS011;1433;49.976;8.342;2022-09-12T08:41:47;15.93;;;12.80;;
2850;SDS011;1433;49.976;8.342;2022-09-12T08:44:35;16.93;;;13.43;;
2850;SDS011;1433;49.976;8.342;2022-09-12T08:50:11;13.03;;;11.83;;
2850;SDS011;1433;49.976;8.342;2022-09-12T08:52:54;14.43;;;11.93;;
2850;SDS011;1433;49.976;8.342;2022-09-12T08:55:35;13.27;;;11.53;;
2850;SDS011;1433;49.976;8.342;2022-09-12T09:05:57;15.20;;;12.57;;
2850;SDS011;1433;49.976;8.342;2022-09-12T09:08:28;15.13;;;13.70;;
2850;SDS011;1433;49.976;8.342;2022-09-12T09:17:09;13.53;;;12.33;;
2850;SDS011;1433;49.976;8.342;2022-09-12T09:19:39;10.70;;;9.77;;
2850;SDS011;1433;49.976;8.342;2022-09-12T09:22:11;12.20;;;11.00;;
2850;SDS011;1433;49.976;8.342;2022-09-12T09:24:42;12.47;;;11.10;;
2850;SDS011;1433;49.976;8.342;2022-09-12T09:27:28;11.93;;;10.73;;
2850;SDS011;1433;49.976;8.342;2022-09-12T09:29:58;13.37;;;12.07;;
2850;SDS011;1433;49.976;8.342;2022-09-12T09:32:30;11.27;;;10.27;;
2850;SDS011;1433;49.976;8.342;2022-09-12T09:34:58;12.70;;;11.50;;
2850;SDS011;1433;49.976;8.342;2022-09-12T09:37:33;11.57;;;10.57;;
2850;SDS011;1433;49.976;8.342;2022-09-12T09:40:14;10.93;;;9.87;;
2850;SDS011;1433;49.976;8.342;2022-09-12T09:43:12;11.57;;;10.40;;
2850;SDS011;1433;49.976;8.342;2022-09-12T09:45:38;11.13;;;10.10;;
2850;SDS011;1433;49.976;8.342;2022-09-12T09:50:46;10.97;;;9.97;;
2850;SDS011;1433;49.976;8.342;2022-09-12T09:53:21;11.00;;;9.90;;
2850;SDS011;1433;49.976;8.342;2022-09-12T09:55:44;10.10;;;9.20;;
2850;SDS011;1433;49.976;8.342;2022-09-12T09:58:10;10.70;;;9.70;;
2850;SDS011;1433;49.976;8.342;2022-09-12T10:00:36;9.73;;;8.83;;
2850;SDS011;1433;49.976;8.342;2022-09-12T10:05:52;9.13;;;8.13;;
2850;SDS011;1433;49.976;8.342;2022-09-12T10:08:27;9.03;;;8.13;;
2850;SDS011;1433;49.976;8.342;2022-09-12T10:10:56;10.23;;;8.67;;
2850;SDS011;1433;49.976;8.342;2022-09-12T10:13:29;9.33;;;8.43;;
2850;SDS011;1433;49.976;8.342;2022-09-12T10:16:15;7.70;;;6.90;;
2850;SDS011;1433;49.976;8.342;2022-09-12T10:18:37;9.37;;;8.57;;
2850;SDS011;1433;49.976;8.342;2022-09-12T10:21:11;8.10;;;7.30;;
2850;SDS011;1433;49.976;8.342;2022-09-12T10:23:35;8.30;;;6.93;;
2850;SDS011;1433;49.976;8.342;2022-09-12T10:26:04;9.10;;;8.30;;
2850;SDS011;1433;49.976;8.342;2022-09-12T10:31:04;9.53;;;7.50;;
2850;SDS011;1433;49.976;8.342;2022-09-12T10:33:33;8.50;;;7.07;;
2850;SDS011;1433;49.976;8.342;2022-09-12T10:36:02;7.97;;;7.17;;
2850;SDS011;1433;49.976;8.342;2022-09-12T10:38:32;7.43;;;6.70;;
2850;SDS011;1433;49.976;8.342;2022-09-12T10:41:06;10.50;;;6.43;;
2850;SDS011;1433;49.976;8.342;2022-09-12T10:43:36;8.70;;;7.47;;
2850;SDS011;1433;49.976;8.342;2022-09-12T10:48:50;7.03;;;6.00;;
2850;SDS011;1433;49.976;8.342;2022-09-12T10:53:54;14.07;;;12.80;;
2850;SDS011;1433;49.976;8.342;2022-09-12T10:56:30;8.60;;;7.07;;
2850;SDS011;1433;49.976;8.342;2022-09-12T11:04:30;8.27;;;7.30;;
2850;SDS011;1433;49.976;8.342;2022-09-12T11:12:55;5.73;;;5.33;;
2850;SDS011;1433;49.976;8.342;2022-09-12T11:21:26;4.80;;;4.43;;
2850;SDS011;1433;49.976;8.342;2022-09-12T11:32:21;4.53;;;4.23;;
2850;SDS011;1433;49.976;8.342;2022-09-12T11:34:53;16.83;;;5.80;;
2850;SDS011;1433;49.976;8.342;2022-09-12T11:37:38;5.27;;;4.87;;
2850;SDS011;1433;49.976;8.342;2022-09-12T11:42:58;5.50;;;5.00;;
2850;SDS011;1433;49.976;8.342;2022-09-12T11:45:33;5.30;;;4.90;;
2850;SDS011;1433;49.976;8.342;2022-09-12T11:48:00;5.30;;;4.90;;
2850;SDS011;1433;49.976;8.342;2022-09-12T11:50:30;5.00;;;4.60;;
2850;SDS011;1433;49.976;8.342;2022-09-12T11:52:59;4.97;;;4.50;;
2850;SDS011;1433;49.976;8.342;2022-09-12T11:55:28;4.30;;;4.00;;
2850;SDS011;1433;49.976;8.342;2022-09-12T11:57:57;5.47;;;5.07;;
2850;SDS011;1433;49.976;8.342;2022-09-12T12:00:29;4.53;;;4.23;;
2850;SDS011;1433;49.976;8.342;2022-09-12T12:03:14;5.13;;;4.50;;
2850;SDS011;1433;49.976;8.342;2022-09-12T12:06:01;4.67;;;4.27;;
2850;SDS011;1433;49.976;8.342;2022-09-12T12:08:48;4.53;;;4.13;;
2850;SDS011;1433;49.976;8.342;2022-09-12T12:11:24;4.33;;;4.03;;
2850;SDS011;1433;49.976;8.342;2022-09-12T12:13:59;4.70;;;4.40;;
2850;SDS011;1433;49.976;8.342;2022-09-12T12:16:35;4.27;;;3.97;;
2850;SDS011;1433;49.976;8.342;2022-09-12T12:19:00;4.10;;;3.90;;
2850;SDS011;1433;49.976;8.342;2022-09-12T12:21:47;5.00;;;4.70;;
2850;SDS011;1433;49.976;8.342;2022-09-12T12:24:16;4.67;;;4.33;;
2850;SDS011;1433;49.976;8.342;2022-09-12T12:34:35;4.23;;;3.90;;
2850;SDS011;1433;49.976;8.342;2022-09-12T12:39:55;4.03;;;3.83;;
2850;SDS011;1433;49.976;8.342;2022-09-12T12:47:56;5.10;;;4.70;;
2850;SDS011;1433;49.976;8.342;2022-09-12T12:50:28;3.87;;;3.67;;
2850;SDS011;1433;49.976;8.342;2022-09-12T12:52:56;3.27;;;3.07;;
2850;SDS011;1433;49.976;8.342;2022-09-12T12:55:34;3.03;;;2.83;;
2850;SDS011;1433;49.976;8.342;2022-09-12T12:58:04;3.50;;;3.30;;
2850;SDS011;1433;49.976;8.342;2022-09-12T13:00:33;3.97;;;3.67;;
2850;SDS011;1433;49.976;8.342;2022-09-12T13:05:47;2.93;;;2.73;;
2850;SDS011;1433;49.976;8.342;2022-09-12T13:10:49;3.37;;;3.07;;
2850;SDS011;1433;49.976;8.342;2022-09-12T13:13:22;3.37;;;3.17;;
2850;SDS011;1433;49.976;8.342;2022-09-12T13:15:54;3.50;;;3.23;;
2850;SDS011;1433;49.976;8.342;2022-09-12T13:23:28;3.50;;;3.17;;
2850;SDS011;1433;49.976;8.342;2022-09-12T13:25:57;3.97;;;3.70;;
2850;SDS011;1433;49.976;8.342;2022-09-12T13:28:26;3.80;;;3.50;;
2850;SDS011;1433;49.976;8.342;2022-09-12T13:30:55;2.80;;;2.60;;
2850;SDS011;1433;49.976;8.342;2022-09-12T13:44:42;3.23;;;3.03;;
2850;SDS011;1433;49.976;8.342;2022-09-12T13:47:15;3.23;;;3.03;;
2850;SDS011;1433;49.976;8.342;2022-09-12T13:49:40;3.37;;;3.10;;
2850;SDS011;1433;49.976;8.342;2022-09-12T13:52:13;3.83;;;3.60;;
2850;SDS011;1433;49.976;8.342;2022-09-12T13:54:40;3.63;;;3.43;;
2850;SDS011;1433;49.976;8.342;2022-09-12T13:57:25;3.90;;;3.60;;
2850;SDS011;1433;49.976;8.342;2022-09-12T13:59:56;3.50;;;3.30;;
2850;SDS011;1433;49.976;8.342;2022-09-12T14:02:26;6.63;;;4.47;;
2850;SDS011;1433;49.976;8.342;2022-09-12T14:04:54;3.60;;;3.40;;
2850;SDS011;1433;49.976;8.342;2022-09-12T14:07:37;4.00;;;3.70;;
2850;SDS011;1433;49.976;8.342;2022-09-12T14:10:21;3.57;;;3.23;;
2850;SDS011;1433;49.976;8.342;2022-09-12T14:12:56;4.07;;;3.77;;
2850;SDS011;1433;49.976;8.342;2022-09-12T14:15:29;4.00;;;3.70;;
2850;SDS011;1433;49.976;8.342;2022-09-12T14:17:59;3.20;;;3.00;;
2850;SDS011;1433;49.976;8.342;2022-09-12T14:20:30;3.30;;;3.10;;
2850;SDS011;1433;49.976;8.342;2022-09-12T14:23:14;3.67;;;3.40;;
2850;SDS011;1433;49.976;8.342;2022-09-12T14:25:34;3.40;;;3.20;;
2850;SDS011;1433;49.976;8.342;2022-09-12T14:28:05;3.70;;;3.40;;
2850;SDS011;1433;49.976;8.342;2022-09-12T14:30:35;3.43;;;3.23;;
2850;SDS011;1433;49.976;8.342;2022-09-12T14:33:03;3.80;;;3.50;;
2850;SDS011;1433;49.976;8.342;2022-09-12T14:35:38;2.70;;;2.60;;
2850;SDS011;1433;49.976;8.342;2022-09-12T14:38:07;5.83;;;2.90;;
2850;SDS011;1433;49.976;8.342;2022-09-12T14:40:46;3.27;;;3.07;;
2850;SDS011;1433;49.976;8.342;2022-09-12T14:43:16;3.70;;;3.50;;
2850;SDS011;1433;49.976;8.342;2022-09-12T14:45:54;5.60;;;3.50;;
2850;SDS011;1433;49.976;8.342;2022-09-12T14:48:24;3.73;;;3.43;;
2850;SDS011;1433;49.976;8.342;2022-09-12T14:50:53;3.97;;;3.73;;
2850;SDS011;1433;49.976;8.342;2022-09-12T14:53:35;3.93;;;3.63;;
2850;SDS011;1433;49.976;8.342;2022-09-12T14:56:07;3.80;;;3.50;;
2850;SDS011;1433;49.976;8.342;2022-09-12T14:58:35;4.17;;;3.30;;
2850;SDS011;1433;49.976;8.342;2022-09-12T15:03:33;4.13;;;3.87;;
2850;SDS011;1433;49.976;8.342;2022-09-12T15:06:01;3.30;;;3.10;;
2850;SDS011;1433;49.976;8.342;2022-09-12T15:08:29;3.80;;;3.50;;
2850;SDS011;1433;49.976;8.342;2022-09-12T15:10:56;4.40;;;4.10;;
2850;SDS011;1433;49.976;8.342;2022-09-12T15:13:24;4.03;;;3.73;;
2850;SDS011;1433;49.976;8.342;2022-09-12T15:18:23;6.30;;;4.13;;
2850;SDS011;1433;49.976;8.342;2022-09-12T15:20:53;4.50;;;4.20;;
2850;SDS011;1433;49.976;8.342;2022-09-12T15:25:58;4.07;;;3.67;;
2850;SDS011;1433;49.976;8.342;2022-09-12T15:28:24;4.47;;;4.17;;
2850;SDS011;1433;49.976;8.342;2022-09-12T15:30:52;3.90;;;3.60;;
2850;SDS011;1433;49.976;8.342;2022-09-12T15:33:21;4.50;;;3.43;;
2850;SDS011;1433;49.976;8.342;2022-09-12T15:35:49;4.43;;;4.03;;
2850;SDS011;1433;49.976;8.342;2022-09-12T15:38:17;4.23;;;3.90;;
2850;SDS011;1433;49.976;8.342;2022-09-12T15:40:43;6.60;;;4.03;;
2850;SDS011;1433;49.976;8.342;2022-09-12T15:43:11;4.00;;;3.70;;
2850;SDS011;1433;49.976;8.342;2022-09-12T15:45:40;6.47;;;3.70;;
2850;SDS011;1433;49.976;8.342;2022-09-12T15:48:08;3.50;;;3.20;;
2850;SDS011;1433;49.976;8.342;2022-09-12T15:50:35;4.50;;;4.10;;
2850;SDS011;1433;49.976;8.342;2022-09-12T15:53:01;4.13;;;3.93;;
2850;SDS011;1433;49.976;8.342;2022-09-12T15:55:28;4.10;;;3.80;;
2850;SDS011;1433;49.976;8.342;2022-09-12T15:57:57;8.93;;;3.90;;
2850;SDS011;1433;49.976;8.342;2022-09-12T16:00:24;3.67;;;3.37;;
2850;SDS011;1433;49.976;8.342;2022-09-12T16:02:51;4.80;;;3.80;;
2850;SDS011;1433;49.976;8.342;2022-09-12T16:05:19;3.23;;;3.03;;
2850;SDS011;1433;49.976;8.342;2022-09-12T16:07:49;3.40;;;3.20;;
2850;SDS011;1433;49.976;8.342;2022-09-12T16:10:19;3.23;;;2.97;;
2850;SDS011;1433;49.976;8.342;2022-09-12T16:12:47;3.43;;;3.20;;
2850;SDS011;1433;49.976;8.342;2022-09-12T16:15:15;3.13;;;2.93;;
2850;SDS011;1433;49.976;8.342;2022-09-12T16:17:43;4.30;;;3.90;;
2850;SDS011;1433;49.976;8.342;2022-09-12T16:20:10;2.83;;;2.63;;
2850;SDS011;1433;49.976;8.342;2022-09-12T16:22:36;3.60;;;3.40;;
2850;SDS011;1433;49.976;8.342;2022-09-12T16:25:04;2.83;;;2.63;;
2850;SDS011;1433;49.976;8.342;2022-09-12T16:27:31;3.10;;;2.90;;
2850;SDS011;1433;49.976;8.342;2022-09-12T16:29:57;5.10;;;4.60;;
2850;SDS011;1433;49.976;8.342;2022-09-12T16:32:23;4.00;;;3.80;;
2850;SDS011;1433;49.976;8.342;2022-09-12T16:34:50;4.13;;;3.83;;
2850;SDS011;1433;49.976;8.342;2022-09-12T16:37:16;3.80;;;3.60;;
2850;SDS011;1433;49.976;8.342;2022-09-12T16:39:43;3.47;;;3.27;;
2850;SDS011;1433;49.976;8.342;2022-09-12T16:42:09;3.23;;;3.00;;
2850;SDS011;1433;49.976;8.342;2022-09-12T16:44:36;2.93;;;2.73;;
2850;SDS011;1433;49.976;8.342;2022-09-12T16:47:02;3.60;;;3.30;;
2850;SDS011;1433;49.976;8.342;2022-09-12T16:49:28;3.57;;;3.37;;
2850;SDS011;1433;49.976;8.342;2022-09-12T16:51:54;3.27;;;3.07;;
2850;SDS011;1433;49.976;8.342;2022-09-12T16:54:21;4.37;;;4.07;;
2850;SDS011;1433;49.976;8.342;2022-09-12T16:56:47;3.80;;;3.50;;
2850;SDS011;1433;49.976;8.342;2022-09-12T16:59:14;4.30;;;3.83;;
2850;SDS011;1433;49.976;8.342;2022-09-12T17:01:41;3.90;;;3.60;;
2850;SDS011;1433;49.976;8.342;2022-09-12T17:04:08;4.13;;;3.83;;
2850;SDS011;1433;49.976;8.342;2022-09-12T17:06:35;4.00;;;3.80;;
2850;SDS011;1433;49.976;8.342;2022-09-12T17:09:01;4.13;;;3.90;;
2850;SDS011;1433;49.976;8.342;2022-09-12T17:11:34;4.37;;;3.97;;
2850;SDS011;1433;49.976;8.342;2022-09-12T17:13:59;3.77;;;3.57;;
2850;SDS011;1433;49.976;8.342;2022-09-12T17:16:27;7.63;;;3.83;;
2850;SDS011;1433;49.976;8.342;2022-09-12T17:18:54;5.10;;;3.97;;
2850;SDS011;1433;49.976;8.342;2022-09-12T17:21:20;4.80;;;3.50;;
2850;SDS011;1433;49.976;8.342;2022-09-12T17:23:47;5.47;;;3.70;;
2850;SDS011;1433;49.976;8.342;2022-09-12T17:26:14;4.20;;;3.90;;
2850;SDS011;1433;49.976;8.342;2022-09-12T17:28:40;4.30;;;4.00;;
2850;SDS011;1433;49.976;8.342;2022-09-12T17:31:08;5.37;;;4.10;;
2850;SDS011;1433;49.976;8.342;2022-09-12T17:33:36;5.13;;;4.73;;
2850;SDS011;1433;49.976;8.342;2022-09-12T17:36:04;5.63;;;4.47;;
2850;SDS011;1433;49.976;8.342;2022-09-12T17:38:34;6.50;;;4.50;;